Terminal Aerodrome Forecast
Issued by NWS

Home | Current Version | Previous Version | Text Only | Print | Product List | Glossary On
Versions: 1 2 3 4 5 6 7 8 9 10 11 12 13 14 15 16 17 18 19 20 21
000
FTUS41 KOKX 290230 AAA
TAFSWF
TAF AMD
KSWF 290230Z 2903/3006 31012KT P6SM BKN050 OVC120
     FM290900 32007KT P6SM SCT250
     FM292000 28008KT P6SM SCT250
     FM292300 23006KT P6SM SCT250
     FM300100 19004KT P6SM SCT250
      AMD NOT SKED=

USA.gov is the U.S. government's official web portal to all federal, state and local government web resources and services.